Puget — AEQW — position and weather

sailwx.info

Track history (hours):
 
Tides and Currents Weather Stations Pressure Air Temp Water Temp Dewpoint Dewpoint Depression Visibility Wind Speed Wind Dir Waves Ship Positions

Puget

Last reported at 2017-Nov-17 00:15 UTC. Time now 2017-Nov-20 00:34 UTC.
Position N 47°34' W 122°21'.

Length 20 m; draft 0.2 m.

Type: Ship. MMSI: 369970510.

Date/timePositionNaut miles runAvg speedWind from/ knotsBaromVisibWave heightAir tempDewpointWater temp
2017-Nov-17 00:15N 47°34' W 122°21'0 0.1
2017-Nov-17 00:00N 47°34' W 122°21'3 5.2
2017-Nov-16 23:31N 47°36' W 122°22'4 8.3
2017-Nov-16 23:00N 47°39' W 122°26'4 8.2
2017-Nov-16 22:31N 47°43' W 122°25'4 7.1
2017-Nov-16 22:00N 47°47' W 122°25'4 7.4
2017-Nov-16 21:30N 47°50' W 122°23'4 7.4
2017-Nov-16 21:00N 47°54' W 122°22'4 7.4
2017-Nov-16 20:30N 47°57' W 122°20'4 7.1
2017-Nov-16 20:00N 48°01' W 122°21'3 6.2
2017-Nov-16 19:30N 48°03' W 122°24'14 6.4
2017-Nov-16 17:24N 48°16' W 122°32'3 8.4
2017-Nov-16 16:59N 48°19' W 122°31'4 5.0
2017-Nov-16 16:12N 48°23' W 122°30'1 0.1
2017-Nov-15 23:49N 48°24' W 122°30'2 4.4
2017-Nov-15 23:24N 48°26' W 122°30'2 5.0
2017-Nov-15 23:00N 48°28' W 122°31'3 5.6
2017-Nov-15 22:30N 48°30' W 122°33'3 6.8
2017-Nov-15 22:00N 48°33' W 122°35'3 6.6
2017-Nov-15 21:30N 48°37' W 122°34'3 6.5
2017-Nov-15 21:00N 48°40' W 122°34'3 6.6
2017-Nov-15 20:30N 48°43' W 122°33'3 4.5
2017-Nov-15 19:54N 48°45' W 122°30'0 0.0
2017-Nov-15 19:28N 48°45' W 122°30'0 0.9
2017-Nov-15 18:59N 48°44' W 122°30'4 7.9
2017-Nov-15 18:30N 48°41' W 122°32'4 7.6
2017-Nov-15 18:00N 48°37' W 122°34'4 7.9
2017-Nov-15 17:30N 48°33' W 122°35'4 8.2
2017-Nov-15 17:00N 48°29' W 122°32'3 6.9
2017-Nov-15 16:30N 48°26' W 122°30'2 3.6
2017-Nov-15 15:51N 48°24' W 122°30'0 0.0
2017-Nov-14 21:51N 48°24' W 122°30'18 7.1
2017-Nov-14 19:21N 48°06' W 122°28'4 8.9
2017-Nov-14 18:56N 48°04' W 122°24'4 9.6
2017-Nov-14 18:30N 48°00' W 122°21'5 9.5
2017-Nov-14 18:00N 47°55' W 122°21'5 9.8
2017-Nov-14 17:30N 47°51' W 122°24'5 9.3
2017-Nov-14 17:00N 47°46' W 122°25'4 8.6
2017-Nov-14 16:30N 47°42' W 122°26'5 9.0
2017-Nov-14 16:00N 47°38' W 122°25'4 8.5
2017-Nov-14 15:30N 47°34' W 122°21'  
Track history (hours):
 
Tides and Currents Weather Stations Pressure Air Temp Water Temp Dewpoint Dewpoint Depression Visibility Wind Speed Wind Dir Waves Ship Positions

Puget

Last reported at 2017-Nov-17 00:15 UTC. Time now 2017-Nov-20 00:34 UTC.
Position N 47°34' W 122°21'.

Length 20 m; draft 0.2 m.

Type: Ship. MMSI: 369970510.

Date/timePositionNaut miles runAvg speedWind from/ knotsBaromVisibWave heightAir tempDewpointWater temp
2017-Nov-17 00:15N 47°34' W 122°21'0 0.1
2017-Nov-17 00:00N 47°34' W 122°21'3 5.2
2017-Nov-16 23:31N 47°36' W 122°22'4 8.3
2017-Nov-16 23:00N 47°39' W 122°26'4 8.2
2017-Nov-16 22:31N 47°43' W 122°25'4 7.1
2017-Nov-16 22:00N 47°47' W 122°25'4 7.4
2017-Nov-16 21:30N 47°50' W 122°23'4 7.4
2017-Nov-16 21:00N 47°54' W 122°22'4 7.4
2017-Nov-16 20:30N 47°57' W 122°20'4 7.1
2017-Nov-16 20:00N 48°01' W 122°21'3 6.2
2017-Nov-16 19:30N 48°03' W 122°24'14 6.4
2017-Nov-16 17:24N 48°16' W 122°32'3 8.4
2017-Nov-16 16:59N 48°19' W 122°31'4 5.0
2017-Nov-16 16:12N 48°23' W 122°30'1 0.1
2017-Nov-15 23:49N 48°24' W 122°30'2 4.4
2017-Nov-15 23:24N 48°26' W 122°30'2 5.0
2017-Nov-15 23:00N 48°28' W 122°31'3 5.6
2017-Nov-15 22:30N 48°30' W 122°33'3 6.8
2017-Nov-15 22:00N 48°33' W 122°35'3 6.6
2017-Nov-15 21:30N 48°37' W 122°34'3 6.5
2017-Nov-15 21:00N 48°40' W 122°34'3 6.6
2017-Nov-15 20:30N 48°43' W 122°33'3 4.5
2017-Nov-15 19:54N 48°45' W 122°30'0 0.0
2017-Nov-15 19:28N 48°45' W 122°30'0 0.9
2017-Nov-15 18:59N 48°44' W 122°30'4 7.9
2017-Nov-15 18:30N 48°41' W 122°32'4 7.6
2017-Nov-15 18:00N 48°37' W 122°34'4 7.9
2017-Nov-15 17:30N 48°33' W 122°35'4 8.2
2017-Nov-15 17:00N 48°29' W 122°32'3 6.9
2017-Nov-15 16:30N 48°26' W 122°30'2 3.6
2017-Nov-15 15:51N 48°24' W 122°30'0 0.0
2017-Nov-14 21:51N 48°24' W 122°30'18 7.1
2017-Nov-14 19:21N 48°06' W 122°28'4 8.9
2017-Nov-14 18:56N 48°04' W 122°24'4 9.6
2017-Nov-14 18:30N 48°00' W 122°21'5 9.5
2017-Nov-14 18:00N 47°55' W 122°21'5 9.8
2017-Nov-14 17:30N 47°51' W 122°24'5 9.3
2017-Nov-14 17:00N 47°46' W 122°25'4 8.6
2017-Nov-14 16:30N 47°42' W 122°26'5 9.0
2017-Nov-14 16:00N 47°38' W 122°25'4 8.5
2017-Nov-14 15:30N 47°34' W 122°21'  

Dump ship's entire track history